createdAt,value
2017-09-07T00:02:21.648Z,67.50
2017-09-07T00:04:49.246Z,67.50
2017-09-07T00:07:16.851Z,67.40
2017-09-07T00:09:44.450Z,67.40
2017-09-07T00:12:12.051Z,67.40
2017-09-07T00:14:39.679Z,67.40
2017-09-07T00:17:08.051Z,67.20
2017-09-07T00:19:35.668Z,67.20
2017-09-07T00:22:35.927Z,66.90
2017-09-07T00:25:03.560Z,67.10
2017-09-07T00:27:31.940Z,67.20
2017-09-07T00:29:59.583Z,67.20
2017-09-07T00:32:27.254Z,67.20
2017-09-07T00:34:54.915Z,67.10
2017-09-07T00:37:22.557Z,67.10
2017-09-07T00:39:50.160Z,66.90
2017-09-07T00:42:18.716Z,66.90
2017-09-07T00:44:46.380Z,66.80
2017-09-07T00:47:14.027Z,66.90
2017-09-07T00:49:42.387Z,66.80
2017-09-07T00:52:10.808Z,66.80
2017-09-07T00:54:38.436Z,66.80
2017-09-07T00:57:06.815Z,66.80
2017-09-07T00:59:35.232Z,66.60
2017-09-07T01:02:03.536Z,66.50
2017-09-07T01:04:31.178Z,66.60
2017-09-07T01:06:58.775Z,66.60
2017-09-07T01:09:26.368Z,66.60
2017-09-07T01:11:55.512Z,66.60
2017-09-07T01:14:23.104Z,66.60
2017-09-07T01:16:50.808Z,66.40
2017-09-07T01:19:19.168Z,66.30
2017-09-07T01:21:47.574Z,66.30
2017-09-07T01:24:15.177Z,66.30
2017-09-07T01:26:43.651Z,66.20
2017-09-07T01:29:11.247Z,66.10
2017-09-07T01:31:39.796Z,66.20
2017-09-07T01:34:07.392Z,66.10
2017-09-07T01:36:34.991Z,66.00
2017-09-07T01:39:02.616Z,66.00
2017-09-07T01:41:30.975Z,66.10
2017-09-07T01:43:58.617Z,66.00
2017-09-07T01:46:26.263Z,66.00
2017-09-07T01:48:54.652Z,66.00
2017-09-07T01:51:23.091Z,65.80
2017-09-07T01:53:51.528Z,65.90
2017-09-07T01:56:19.229Z,65.70
2017-09-07T01:58:47.626Z,65.70
2017-09-07T02:01:15.259Z,65.70
2017-09-07T02:03:44.328Z,65.70
2017-09-07T02:06:12.064Z,65.60
2017-09-07T02:08:39.660Z,65.60
2017-09-07T02:11:08.143Z,65.60
2017-09-07T02:13:35.809Z,65.40
2017-09-07T02:16:03.411Z,65.60
2017-09-07T02:18:31.024Z,65.70
2017-09-07T02:20:59.504Z,65.60
2017-09-07T02:23:27.095Z,65.40
2017-09-07T02:25:55.584Z,65.40
2017-09-07T02:28:23.185Z,65.50
2017-09-07T02:30:51.497Z,65.40
2017-09-07T02:33:19.131Z,65.40
2017-09-07T02:35:46.726Z,65.30
2017-09-07T02:38:15.261Z,65.30
2017-09-07T02:40:43.739Z,65.40
2017-09-07T02:43:13.042Z,65.30
2017-09-07T02:45:40.644Z,65.30
2017-09-07T02:48:08.237Z,65.30
2017-09-07T02:50:37.379Z,65.30
2017-09-07T02:53:04.977Z,65.20
2017-09-07T02:55:32.612Z,65.20
2017-09-07T02:58:01.043Z,65.10
2017-09-07T03:00:29.554Z,65.30
2017-09-07T03:02:57.148Z,65.30
2017-09-07T03:05:24.749Z,65.10
2017-09-07T03:07:53.159Z,65.00
2017-09-07T03:10:20.758Z,64.80
2017-09-07T03:12:48.360Z,65.00
2017-09-07T03:15:16.731Z,65.10
2017-09-07T03:17:44.428Z,65.00
2017-09-07T03:20:12.086Z,65.00
2017-09-07T03:22:40.444Z,65.90
2017-09-07T03:25:08.815Z,65.00
2017-09-07T03:27:36.412Z,65.00
2017-09-07T03:30:04.013Z,65.00
2017-09-07T03:32:31.614Z,65.10
2017-09-07T03:34:59.217Z,65.00
2017-09-07T03:37:26.815Z,64.90
2017-09-07T03:39:55.181Z,65.40
2017-09-07T03:42:22.775Z,64.90
2017-09-07T03:44:51.268Z,65.00
2017-09-07T03:47:18.866Z,64.90
2017-09-07T03:49:46.496Z,65.10
2017-09-07T03:52:14.154Z,65.00
2017-09-07T03:54:41.823Z,64.90
2017-09-07T03:57:10.432Z,64.90
2017-09-07T03:59:38.075Z,64.90
2017-09-07T04:02:05.732Z,65.00
2017-09-07T04:04:33.392Z,65.00
2017-09-07T04:07:00.996Z,64.80
2017-09-07T04:09:28.603Z,65.00
2017-09-07T04:11:56.344Z,64.90
2017-09-07T04:14:23.936Z,64.90
2017-09-07T04:16:51.528Z,64.70
2017-09-07T04:19:19.127Z,64.80
2017-09-07T04:21:46.731Z,64.80
2017-09-07T04:24:14.327Z,64.80
2017-09-07T04:26:41.924Z,64.70
2017-09-07T04:29:10.289Z,64.90
2017-09-07T04:31:38.570Z,64.80
2017-09-07T04:34:06.182Z,64.90
2017-09-07T04:36:33.775Z,64.80
2017-09-07T04:39:01.379Z,64.80
2017-09-07T04:41:29.665Z,64.70
2017-09-07T04:43:58.151Z,64.70
2017-09-07T04:46:26.552Z,64.70
2017-09-07T04:48:54.196Z,64.90
2017-09-07T04:51:22.569Z,64.90
2017-09-07T04:53:50.175Z,64.80
2017-09-07T04:56:17.768Z,64.80
2017-09-07T04:58:46.185Z,65.00
2017-09-07T05:01:14.663Z,64.80
2017-09-07T05:03:42.324Z,64.80
2017-09-07T05:06:09.995Z,64.90
2017-09-07T05:08:37.600Z,64.90
2017-09-07T05:11:05.220Z,64.80
2017-09-07T05:13:32.819Z,65.20
2017-09-07T05:16:01.246Z,65.20
2017-09-07T05:18:28.856Z,65.30
2017-09-07T05:20:56.583Z,65.30
2017-09-07T05:23:24.244Z,65.30
2017-09-07T05:25:51.844Z,65.20
2017-09-07T05:28:19.574Z,65.40
2017-09-07T05:30:47.173Z,65.40
2017-09-07T05:33:14.812Z,65.40
2017-09-07T05:35:42.421Z,66.00
2017-09-07T05:38:11.700Z,66.30
2017-09-07T05:40:39.336Z,66.10
2017-09-07T05:43:08.381Z,65.90
2017-09-07T05:45:35.988Z,66.00
2017-09-07T05:48:03.591Z,65.80
2017-09-07T05:50:31.201Z,65.80
2017-09-07T05:52:59.581Z,66.10
2017-09-07T05:55:28.724Z,65.90
2017-09-07T05:57:56.324Z,65.80
2017-09-07T06:00:24.005Z,66.10
2017-09-07T06:02:52.640Z,65.90
2017-09-07T06:05:20.352Z,66.00
2017-09-07T06:07:47.955Z,66.10
2017-09-07T06:10:15.560Z,66.20
2017-09-07T06:12:43.235Z,66.10
2017-09-07T06:15:11.719Z,66.00
2017-09-07T06:17:40.084Z,66.00
2017-09-07T06:20:08.489Z,65.70
2017-09-07T06:22:36.100Z,65.60
2017-09-07T06:25:03.753Z,65.50
2017-09-07T06:27:31.357Z,65.20
2017-09-07T06:29:58.991Z,64.90
2017-09-07T06:32:26.688Z,64.70
2017-09-07T06:34:55.084Z,64.60
2017-09-07T06:37:22.745Z,64.80
2017-09-07T06:39:50.343Z,64.90
2017-09-07T06:42:17.943Z,65.00
2017-09-07T06:44:45.616Z,64.90
2017-09-07T06:47:14.886Z,64.90
2017-09-07T06:49:42.492Z,64.90
2017-09-07T06:52:10.100Z,65.00
2017-09-07T06:54:37.701Z,65.00
2017-09-07T06:57:06.848Z,65.20
2017-09-07T06:59:35.397Z,65.10
2017-09-07T07:02:03.049Z,65.20
2017-09-07T07:04:30.653Z,65.10
2017-09-07T07:06:58.285Z,65.00
2017-09-07T07:09:25.897Z,65.10
2017-09-07T07:11:53.500Z,65.10
2017-09-07T07:14:21.141Z,65.00
2017-09-07T07:16:49.562Z,65.30
2017-09-07T07:19:17.168Z,65.30
2017-09-07T07:21:44.877Z,65.10
2017-09-07T07:24:12.471Z,65.20
2017-09-07T07:26:40.884Z,65.10
2017-09-07T07:29:08.572Z,65.00
2017-09-07T07:31:36.181Z,65.10
2017-09-07T07:34:04.564Z,65.20
2017-09-07T07:36:32.184Z,65.20
2017-09-07T07:39:00.556Z,65.20
2017-09-07T07:41:29.110Z,65.10
2017-09-07T07:43:56.715Z,65.00
2017-09-07T07:46:25.004Z,65.00
2017-09-07T07:48:52.607Z,65.10
2017-09-07T07:51:21.532Z,65.20
2017-09-07T07:53:49.903Z,65.00
2017-09-07T07:56:17.507Z,65.00
2017-09-07T07:58:46.061Z,65.00
2017-09-07T08:01:13.659Z,65.00
2017-09-07T08:03:41.280Z,65.00
2017-09-07T08:06:09.697Z,65.10
2017-09-07T08:08:37.332Z,65.10
2017-09-07T08:11:04.936Z,65.00
2017-09-07T08:13:32.620Z,65.00
2017-09-07T08:16:00.762Z,65.00
2017-09-07T08:18:28.359Z,65.00
2017-09-07T08:20:56.853Z,65.10
2017-09-07T08:23:26.382Z,65.00
2017-09-07T08:25:56.004Z,65.00
2017-09-07T08:28:23.610Z,65.00
2017-09-07T08:30:51.206Z,65.00
2017-09-07T08:33:18.996Z,65.00
2017-09-07T08:35:47.507Z,65.00
2017-09-07T08:38:15.118Z,65.10
2017-09-07T08:40:44.296Z,65.90
2017-09-07T08:43:13.044Z,65.10
2017-09-07T08:45:40.670Z,65.10
2017-09-07T08:48:09.864Z,65.00
2017-09-07T08:50:37.528Z,65.10
2017-09-07T08:53:05.189Z,65.00
2017-09-07T08:55:33.572Z,65.10
2017-09-07T08:58:01.180Z,65.00
2017-09-07T09:00:28.781Z,65.00
2017-09-07T09:02:56.379Z,65.00
2017-09-07T09:05:24.029Z,64.90
2017-09-07T09:07:52.609Z,64.80
2017-09-07T09:10:20.209Z,64.80
2017-09-07T09:12:48.731Z,64.90
2017-09-07T09:15:17.128Z,64.90
2017-09-07T09:17:44.723Z,64.90
2017-09-07T09:20:12.320Z,64.80
2017-09-07T09:22:40.726Z,64.80
2017-09-07T09:25:09.120Z,64.90
2017-09-07T09:27:36.732Z,64.90
2017-09-07T09:30:04.449Z,64.80
2017-09-07T09:32:33.300Z,65.00
2017-09-07T09:35:01.705Z,64.90
2017-09-07T09:37:31.020Z,65.00
2017-09-07T09:39:58.677Z,64.90
2017-09-07T09:42:27.169Z,64.80
2017-09-07T09:44:55.645Z,64.80
2017-09-07T09:47:23.850Z,64.80
2017-09-07T09:49:51.453Z,64.80
2017-09-07T09:52:19.823Z,64.80
2017-09-07T09:54:47.438Z,64.80
2017-09-07T09:57:15.078Z,64.80
2017-09-07T09:59:43.468Z,64.60
2017-09-07T10:02:11.160Z,64.70
2017-09-07T10:04:38.752Z,64.60
2017-09-07T10:07:06.412Z,64.60
2017-09-07T10:09:35.520Z,64.80
2017-09-07T10:12:04.716Z,64.60
2017-09-07T10:14:33.819Z,64.60
2017-09-07T10:17:02.158Z,64.50
2017-09-07T10:19:29.792Z,64.60
2017-09-07T10:21:58.297Z,64.80
2017-09-07T10:24:25.888Z,64.60
2017-09-07T10:26:55.340Z,64.50
2017-09-07T10:29:22.941Z,64.40
2017-09-07T10:31:50.544Z,64.40
2017-09-07T10:34:18.905Z,64.40
2017-09-07T10:36:46.508Z,64.40
2017-09-07T10:39:14.234Z,64.20
2017-09-07T10:41:42.612Z,64.10
2017-09-07T10:44:10.210Z,64.30
2017-09-07T10:46:37.803Z,64.40
2017-09-07T10:49:06.306Z,64.50
2017-09-07T10:51:33.905Z,64.30
2017-09-07T10:54:01.503Z,64.40
2017-09-07T10:56:29.820Z,64.30
2017-09-07T10:58:57.453Z,64.20
2017-09-07T11:01:25.760Z,64.10
2017-09-07T11:03:54.126Z,64.20
2017-09-07T11:06:22.544Z,64.50
2017-09-07T11:08:50.145Z,64.20
2017-09-07T11:11:18.428Z,64.20
2017-09-07T11:13:46.031Z,64.30
2017-09-07T11:16:15.026Z,64.60
2017-09-07T11:18:44.177Z,64.30
2017-09-07T11:21:11.833Z,64.30
2017-09-07T11:23:39.427Z,64.30
2017-09-07T11:26:07.024Z,64.40
2017-09-07T11:28:36.533Z,64.10
2017-09-07T11:31:04.197Z,64.10
2017-09-07T11:33:32.457Z,64.10
2017-09-07T11:36:00.172Z,64.30
2017-09-07T11:38:27.793Z,64.10
2017-09-07T11:40:55.432Z,64.00
2017-09-07T11:43:23.714Z,64.50
2017-09-07T11:45:51.299Z,64.30
2017-09-07T11:48:19.783Z,64.20
2017-09-07T11:50:48.140Z,64.20
2017-09-07T11:53:17.451Z,63.80
2017-09-07T11:55:45.044Z,63.90
2017-09-07T11:58:12.691Z,63.70
2017-09-07T12:00:40.299Z,63.90
2017-09-07T12:03:07.902Z,64.10
2017-09-07T12:05:36.520Z,64.00
2017-09-07T12:08:04.147Z,64.00
2017-09-07T12:10:32.535Z,64.00
2017-09-07T12:13:00.898Z,64.00
2017-09-07T12:15:29.279Z,64.00
2017-09-07T12:17:56.960Z,64.00
2017-09-07T12:20:25.352Z,64.30
2017-09-07T12:22:54.008Z,64.30
2017-09-07T12:25:22.373Z,64.30
2017-09-07T12:27:50.017Z,64.30
2017-09-07T12:30:17.811Z,64.60
2017-09-07T12:32:46.212Z,64.70
2017-09-07T12:35:14.708Z,64.90
2017-09-07T12:37:42.304Z,64.80
2017-09-07T12:40:10.719Z,64.80
2017-09-07T12:42:40.041Z,66.00
2017-09-07T12:45:07.633Z,65.10
2017-09-07T12:47:35.228Z,65.00
2017-09-07T12:50:02.833Z,65.10
2017-09-07T12:52:30.447Z,65.20
2017-09-07T12:54:58.088Z,65.30
2017-09-07T12:57:25.693Z,65.30
2017-09-07T12:59:53.325Z,65.40
2017-09-07T13:02:21.696Z,65.40
2017-09-07T13:04:49.357Z,65.30
2017-09-07T13:07:16.951Z,65.30
2017-09-07T13:09:46.304Z,65.50
2017-09-07T13:12:15.460Z,65.70
2017-09-07T13:14:43.065Z,65.60
2017-09-07T13:17:11.564Z,65.70
2017-09-07T13:19:39.181Z,65.70
2017-09-07T13:22:06.951Z,65.60
2017-09-07T13:24:34.548Z,65.70
2017-09-07T13:27:03.032Z,65.70
2017-09-07T13:29:30.645Z,65.70
2017-09-07T13:31:58.253Z,66.80
2017-09-07T13:34:25.893Z,65.90
2017-09-07T13:36:53.524Z,65.90
2017-09-07T13:39:21.251Z,66.00
2017-09-07T13:41:48.968Z,66.00
2017-09-07T13:44:16.601Z,66.00
2017-09-07T13:46:45.760Z,66.10
2017-09-07T13:49:13.575Z,66.10
2017-09-07T13:51:41.945Z,66.20
2017-09-07T13:54:09.593Z,66.40
2017-09-07T13:56:37.204Z,66.40
2017-09-07T13:59:06.460Z,66.80
2017-09-07T14:01:34.268Z,66.70
2017-09-07T14:04:01.872Z,66.90
2017-09-07T14:06:29.511Z,67.00
2017-09-07T14:08:57.111Z,67.10
2017-09-07T14:11:25.584Z,67.20
2017-09-07T14:13:53.213Z,67.40
2017-09-07T14:16:20.804Z,67.40
2017-09-07T14:18:49.220Z,67.70
2017-09-07T14:21:17.593Z,67.90
2017-09-07T14:23:45.284Z,67.90
2017-09-07T14:26:12.887Z,68.00
2017-09-07T14:28:40.748Z,68.20
2017-09-07T14:31:08.417Z,68.20
2017-09-07T14:33:36.024Z,68.40
2017-09-07T14:36:03.634Z,68.40
2017-09-07T14:38:31.280Z,68.40
2017-09-07T14:40:58.892Z,68.50
2017-09-07T14:43:27.260Z,68.50
2017-09-07T14:45:54.884Z,68.50
2017-09-07T14:48:22.488Z,68.50
2017-09-07T14:50:50.204Z,68.60
2017-09-07T14:53:18.601Z,68.70
2017-09-07T14:55:47.246Z,68.70
2017-09-07T14:58:15.656Z,68.90
2017-09-07T15:00:43.319Z,68.80
2017-09-07T15:03:10.928Z,68.90
2017-09-07T15:05:39.295Z,69.20
2017-09-07T15:08:07.001Z,69.20
2017-09-07T15:10:35.584Z,69.40
2017-09-07T15:13:04.005Z,69.50
2017-09-07T15:15:31.640Z,69.50
2017-09-07T15:18:00.067Z,69.60
2017-09-07T15:20:28.520Z,69.60
2017-09-07T15:22:56.124Z,69.50
2017-09-07T15:25:24.492Z,69.40
2017-09-07T15:27:52.096Z,69.40
2017-09-07T15:30:19.760Z,69.30
2017-09-07T15:32:47.371Z,69.50
2017-09-07T15:35:14.975Z,69.50
2017-09-07T15:37:43.362Z,69.40
2017-09-07T15:40:10.977Z,69.40
2017-09-07T15:42:38.574Z,69.40
2017-09-07T15:45:06.260Z,69.50
2017-09-07T15:47:33.864Z,69.40
2017-09-07T15:50:01.464Z,69.50
2017-09-07T15:52:29.896Z,69.60
2017-09-07T15:54:57.493Z,69.60
2017-09-07T15:57:25.894Z,69.70
2017-09-07T15:59:53.496Z,69.60
2017-09-07T16:02:21.096Z,69.70
2017-09-07T16:04:49.463Z,69.80
2017-09-07T16:07:17.832Z,70.10
2017-09-07T16:09:45.437Z,69.90
2017-09-07T16:12:13.113Z,69.90
2017-09-07T16:14:40.707Z,69.80
2017-09-07T16:17:08.336Z,69.90
2017-09-07T16:19:36.716Z,69.90
2017-09-07T16:22:04.307Z,69.90
2017-09-07T16:24:31.917Z,70.00
2017-09-07T16:27:00.300Z,70.00
2017-09-07T16:29:28.664Z,70.00
2017-09-07T16:31:57.769Z,70.10
2017-09-07T16:34:26.145Z,70.20
2017-09-07T16:36:54.526Z,70.80
2017-09-07T16:39:22.211Z,70.10
2017-09-07T16:41:49.840Z,70.20
2017-09-07T16:44:18.957Z,70.40
2017-09-07T16:46:47.396Z,70.40
2017-09-07T16:49:15.003Z,70.40
2017-09-07T16:51:42.605Z,70.40
2017-09-07T16:54:10.350Z,70.30
2017-09-07T16:56:38.018Z,70.40
2017-09-07T16:59:06.506Z,70.50
2017-09-07T17:01:34.115Z,70.40
2017-09-07T17:04:03.404Z,70.50
2017-09-07T17:06:31.005Z,70.50
2017-09-07T17:08:59.514Z,70.40
2017-09-07T17:11:28.053Z,70.70
2017-09-07T17:13:56.470Z,70.80
2017-09-07T17:16:24.917Z,70.70
2017-09-07T17:18:53.321Z,70.80
2017-09-07T17:21:20.925Z,70.80
2017-09-07T17:23:48.543Z,70.80
2017-09-07T17:26:16.144Z,70.40
2017-09-07T17:28:43.780Z,70.40
2017-09-07T17:31:11.381Z,70.20
2017-09-07T17:33:39.198Z,70.20
2017-09-07T17:36:06.892Z,70.20
2017-09-07T17:38:34.525Z,70.00
2017-09-07T17:41:02.200Z,70.20
2017-09-07T17:43:29.806Z,70.40
2017-09-07T17:45:58.234Z,69.60
2017-09-07T17:48:25.872Z,70.20
2017-09-07T17:50:53.479Z,70.20
2017-09-07T17:53:21.117Z,70.40
2017-09-07T17:55:48.725Z,70.20
2017-09-07T17:58:16.333Z,70.30
2017-09-07T18:00:43.977Z,70.30
2017-09-07T18:03:11.584Z,70.20
2017-09-07T18:05:40.025Z,70.20
2017-09-07T18:08:08.457Z,70.30
2017-09-07T18:10:36.083Z,70.30
2017-09-07T18:13:04.476Z,70.50
2017-09-07T18:15:32.076Z,70.40
2017-09-07T18:17:59.672Z,70.50
2017-09-07T18:20:28.112Z,70.50
2017-09-07T18:22:55.713Z,70.40
2017-09-07T18:25:24.112Z,70.40
2017-09-07T18:27:52.655Z,70.40
2017-09-07T18:30:21.035Z,70.60
2017-09-07T18:32:49.401Z,71.40
2017-09-07T18:35:17.018Z,70.50
2017-09-07T18:37:44.680Z,70.50
2017-09-07T18:40:12.349Z,70.50
2017-09-07T18:42:40.026Z,70.50
2017-09-07T18:45:07.705Z,70.40
2017-09-07T18:47:36.361Z,70.50
2017-09-07T18:50:03.966Z,71.40
2017-09-07T18:52:31.568Z,70.30
2017-09-07T18:54:59.982Z,70.60
2017-09-07T18:57:27.588Z,70.40
2017-09-07T18:59:55.280Z,70.30
2017-09-07T19:02:22.885Z,70.20
2017-09-07T19:04:51.284Z,70.20
2017-09-07T19:07:18.904Z,70.10
2017-09-07T19:09:47.303Z,70.10
2017-09-07T19:12:15.624Z,70.10
2017-09-07T19:14:44.914Z,70.10
2017-09-07T19:17:13.289Z,70.00
2017-09-07T19:19:43.522Z,69.90
2017-09-07T19:22:11.968Z,70.00
2017-09-07T19:24:39.581Z,70.00
2017-09-07T19:27:08.131Z,69.80
2017-09-07T19:29:35.733Z,70.20
2017-09-07T19:32:04.220Z,70.10
2017-09-07T19:34:31.889Z,70.10
2017-09-07T19:36:59.497Z,70.00
2017-09-07T19:39:27.219Z,69.80
2017-09-07T19:41:54.816Z,69.80
2017-09-07T19:44:22.443Z,69.70
2017-09-07T19:46:50.982Z,69.60
2017-09-07T19:49:19.407Z,69.60
2017-09-07T19:51:47.919Z,69.60
2017-09-07T19:54:15.525Z,69.50
2017-09-07T19:56:43.907Z,70.30
2017-09-07T19:59:11.602Z,70.30
2017-09-07T20:01:39.216Z,70.20
2017-09-07T20:04:07.642Z,70.60
2017-09-07T20:06:35.253Z,70.60
2017-09-07T20:09:03.633Z,70.90
2017-09-07T20:11:32.016Z,70.60
2017-09-07T20:14:00.472Z,71.10
2017-09-07T20:16:28.101Z,71.10
2017-09-07T20:18:55.720Z,71.20
2017-09-07T20:21:25.108Z,70.10
2017-09-07T20:23:53.752Z,70.80
2017-09-07T20:26:21.392Z,70.80
2017-09-07T20:28:49.032Z,71.70
2017-09-07T20:31:16.681Z,71.40
2017-09-07T20:33:44.296Z,71.30
2017-09-07T20:36:11.916Z,71.40
2017-09-07T20:38:39.524Z,72.00
2017-09-07T20:41:07.131Z,71.50
2017-09-07T20:43:34.785Z,71.40
2017-09-07T20:46:02.404Z,71.20
2017-09-07T20:48:30.047Z,71.10
2017-09-07T20:50:58.427Z,71.90
2017-09-07T20:53:26.832Z,71.70
2017-09-07T20:55:54.461Z,71.70
2017-09-07T20:58:23.696Z,71.60
2017-09-07T21:00:52.179Z,71.70
2017-09-07T21:03:19.777Z,71.60
2017-09-07T21:05:48.099Z,71.40
2017-09-07T21:08:16.464Z,71.30
2017-09-07T21:10:45.900Z,72.10
2017-09-07T21:13:13.500Z,72.10
2017-09-07T21:15:41.145Z,71.70
2017-09-07T21:18:08.752Z,71.70
2017-09-07T21:20:37.169Z,71.80
2017-09-07T21:23:04.834Z,71.80
2017-09-07T21:25:32.498Z,71.70
2017-09-07T21:28:00.127Z,71.70
2017-09-07T21:30:28.506Z,71.90
2017-09-07T21:32:56.884Z,72.00
2017-09-07T21:35:25.252Z,71.90
2017-09-07T21:37:52.859Z,71.90
2017-09-07T21:40:20.513Z,72.70
2017-09-07T21:42:48.930Z,71.90
2017-09-07T21:45:16.565Z,71.90
2017-09-07T21:47:44.205Z,72.00
2017-09-07T21:50:12.580Z,71.90
2017-09-07T21:52:40.952Z,71.70
2017-09-07T21:55:09.340Z,72.00
2017-09-07T21:57:36.952Z,71.80
2017-09-07T22:00:04.692Z,72.70
2017-09-07T22:02:33.280Z,71.80
2017-09-07T22:05:00.910Z,71.80
2017-09-07T22:07:29.288Z,72.10
2017-09-07T22:09:58.441Z,72.00
2017-09-07T22:12:26.888Z,72.00
2017-09-07T22:14:56.140Z,72.00
2017-09-07T22:17:23.857Z,71.90
2017-09-07T22:19:51.466Z,72.10
2017-09-07T22:22:19.114Z,71.60
2017-09-07T22:24:46.715Z,71.80
2017-09-07T22:27:15.879Z,71.80
2017-09-07T22:29:44.288Z,71.80
2017-09-07T22:32:12.712Z,71.50
2017-09-07T22:34:40.316Z,71.40
2017-09-07T22:37:08.755Z,71.70
2017-09-07T22:39:37.176Z,72.00
2017-09-07T22:42:05.681Z,71.60
2017-09-07T22:44:34.910Z,71.60
2017-09-07T22:47:04.045Z,71.50
2017-09-07T22:49:32.708Z,71.40
2017-09-07T22:52:00.312Z,71.50
2017-09-07T22:54:27.927Z,71.50
2017-09-07T22:56:56.443Z,71.50
2017-09-07T22:59:24.834Z,71.80
2017-09-07T23:01:52.479Z,71.60
2017-09-07T23:04:20.891Z,71.40
2017-09-07T23:06:49.926Z,71.30
2017-09-07T23:09:17.519Z,71.30
2017-09-07T23:11:45.142Z,71.30
2017-09-07T23:14:12.744Z,71.10
2017-09-07T23:16:40.363Z,70.90
2017-09-07T23:19:08.773Z,70.90
2017-09-07T23:21:37.208Z,71.10
2017-09-07T23:24:05.583Z,70.90
2017-09-07T23:26:33.941Z,71.30
2017-09-07T23:29:01.655Z,71.30
2017-09-07T23:31:29.251Z,70.90
2017-09-07T23:33:57.751Z,70.60
2017-09-07T23:36:25.355Z,70.90
2017-09-07T23:38:53.844Z,70.90
2017-09-07T23:41:22.363Z,70.90
2017-09-07T23:43:50.778Z,70.80
2017-09-07T23:46:19.192Z,70.50
2017-09-07T23:48:46.786Z,70.60
2017-09-07T23:51:14.420Z,70.70
2017-09-07T23:53:42.807Z,70.60
2017-09-07T23:56:10.439Z,70.40
2017-09-07T23:58:38.112Z,70.90
